Webcam  Webcam


Lyn radar more information blitzortung!


Regn radar more information rain snow radar



Lokal METAR Rapport

   
EHVK - Volkel Rnlafb, Netherlands
Afstand fra station: SV 18 km
Opdateret: 23-10-2020 01:55
Tåge, Overskyet  
Tåge, Overskyet  
   Vind: SV 2.6 m/s
Vind: SV 2.6 m/s
Temperatur: 10°C
Kuldeindeks: 9°C
Dugpunkt: 10°C
Luftfugtighed: 100%
Barometer: 1012 hPa
Skyet: Overskyet
Sigtbarhed: 0 km
Sky detaljer: Overskyet 23000 ft
EHVK 222355Z AUTO 22005KT 0300 FG OVC230 10/10 Q1012 RED
EDLV - Niederrhein, Germany
Afstand fra station: SØ 25 km
Opdateret: 22-10-2020 23:50
Ikke Aktuelt
Delvis skyet  
Delvis skyet  
   Vind: SSV 2.6 m/s
Vind: SSV 2.6 m/s
Temperatur: 13°C
Dugpunkt: 12°C
Luftfugtighed: 94%
Barometer: 1012 hPa
Skyet: Delvis skyet
Sigtbarhed: 7 km
Sky detaljer: Delvis skyet
EDLV 222150Z 20005KT 7000 NSC 13/12 Q1012
EHDL - Deelen Rnlafb, Netherlands
Afstand fra station: N 35 km
Opdateret: 23-10-2020 01:55
Let tåge, mest skyet  
Let tåge, mest skyet  
   Vind: SSV 2.6 m/s
Vind: SSV 2.6 m/s
Temperatur: 10°C
Kuldeindeks: 9°C
Dugpunkt: 10°C
Luftfugtighed: 100%
Barometer: 1011 hPa
Skyet: mest skyet
Sigtbarhed: 2 km
Sky detaljer: mest skyet 28000 ft
EHDL 222355Z AUTO 20005KT 130V220 2000 BR BKN280 10/10 Q1011 YLO
EHEH - Eindhoven Rnlafb, Netherlands
Afstand fra station: SV 48 km
Opdateret: 23-10-2020 01:55
Tåge, Overskyet  
Tåge, Overskyet  
   Vind: SSV 1 m/s
Vind: SSV 1 m/s
Temperatur: 10°C
Dugpunkt: 10°C
Luftfugtighed: 100%
Barometer: 1012 hPa
Skyet: Overskyet
Sigtbarhed: 0 km
Sky detaljer: Overskyet 22000 ft
EHEH 222355Z AUTO 21002KT 0350 FG OVC220 10/10 Q1012 RED
EHGR - Gilze-Rijen Rnla, Netherlands
Afstand fra station: VSV 70 km
Opdateret: 23-10-2020 01:55
Let Skyet  
Let Skyet  
   Vind: SSV 1.5 m/s
Vind: SSV 1.5 m/s
Temperatur: 10°C
Kuldeindeks: 9°C
Dugpunkt: 10°C
Luftfugtighed: 100%
Barometer: 1012 hPa
Skyet: Let Skyet
Sigtbarhed: mere end 10 km
Sky detaljer: Let Skyet 23000 ft
EHGR 222355Z AUTO 20003KT 040V210 9999 FEW230 10/10 Q1012 BLU
EBBL - Kleine-Brogel(Ba, Belgium
Afstand fra station: SSV 71 km
Opdateret: 23-10-2020 01:55
Let tåge, mest skyet  
Let tåge, mest skyet  
   Vind: SSV 1.5 m/s
Vind: SSV 1.5 m/s
Temperatur: 12°C
Dugpunkt: 12°C
Luftfugtighed: 100%
Barometer: 1012 hPa
Skyet: mest skyet
Sigtbarhed: 4 km
Sky detaljer: mest skyet 3200 ft
EBBL 222355Z AUTO 20003KT 3800 BR BKN032/// 12/12 Q1012 GRN

Script udviklet af  Saratoga-weather.org Tilpasset til denne template af  Weerstation Leuven

Du finder også vores vejrinformationer på:

UK Metoffice

European Weather Network

WeatherCloud

Weather Underground

AWEKAS

Citizen Weather Observer Program (CWOP)

HAMweather, WeatherForYou, PWS Weather

Udstyr som vi anvender:

Vejrstation
Davis VP2

Vejrprogram
Meteobridge

Vejrserver
Meteobridge Pro

Davis VP2

Meteobridge

Meteobridge Pro